Time;durP1;ratioP1;P1;durP2;ratioP2;P2;SDS_P1;SDS_P2;PMS_P1;PMS_P2;Temp;Humidity;BMP_temperature;BMP_pressure;BME280_temperature;BME280_humidity;BME280_pressure;Samples;Min_cycle;Max_cycle;Signal;HPM_P1;HPM_P2
2022/11/16 00:00:30;;;;;;;11.03;8.77;;;;;;;9.96;100.00;98750.38;5035410;28;20236;-62
2022/11/16 00:02:55;;;;;;;11.00;8.77;;;;;;;9.97;100.00;98759.72;5034392;28;20174;-62
2022/11/16 00:05:20;;;;;;;10.70;8.33;;;;;;;10.11;100.00;98754.38;5052593;28;20311;-62
2022/11/16 00:07:46;;;;;;;9.90;8.63;;;;;;;10.00;100.00;98752.59;5034236;28;20189;-62
2022/11/16 00:10:11;;;;;;;10.53;9.40;;;;;;;10.11;100.00;98756.13;5034763;28;20181;-61
2022/11/16 00:12:38;;;;;;;9.60;8.67;;;;;;;10.11;100.00;98748.41;5038858;28;20631;-63
2022/11/16 00:15:04;;;;;;;10.40;8.57;;;;;;;10.16;100.00;98744.59;5044039;28;20644;-63
2022/11/16 00:17:29;;;;;;;9.97;8.77;;;;;;;10.00;100.00;98742.34;5033708;28;20276;-63
2022/11/16 00:19:54;;;;;;;10.07;8.03;;;;;;;9.97;100.00;98737.44;5052372;28;20293;-63
2022/11/16 00:22:20;;;;;;;11.97;8.87;;;;;;;10.04;100.00;98748.06;5040814;28;20224;-63
2022/11/16 00:24:45;;;;;;;11.30;8.70;;;;;;;10.08;100.00;98741.75;5052607;28;20647;-62
2022/11/16 00:27:13;;;;;;;9.87;8.23;;;;;;;9.94;100.00;98744.53;5051770;28;20180;-62
2022/11/16 00:29:38;;;;;;;9.73;8.73;;;;;;;9.94;100.00;98740.22;5034183;28;20199;-63
2022/11/16 00:32:04;;;;;;;11.37;8.53;;;;;;;9.94;100.00;98731.69;5019651;28;20685;-64
2022/11/16 00:34:29;;;;;;;9.93;8.70;;;;;;;10.05;100.00;98726.59;5051635;28;20204;-63
2022/11/16 00:36:55;;;;;;;10.87;8.77;;;;;;;9.85;100.00;98740.91;5051512;28;20217;-65
2022/11/16 00:39:20;;;;;;;10.13;8.90;;;;;;;9.83;100.00;98729.91;5052000;28;20225;-62
2022/11/16 00:41:46;;;;;;;11.23;8.37;;;;;;;9.76;100.00;98721.84;5040401;28;20411;-62
2022/11/16 00:44:12;;;;;;;12.90;8.50;;;;;;;9.77;100.00;98725.22;5021416;28;20200;-64
2022/11/16 00:46:38;;;;;;;11.23;8.80;;;;;;;9.74;100.00;98720.34;5033264;28;20629;-64
2022/11/16 00:49:04;;;;;;;11.13;8.67;;;;;;;9.76;100.00;98715.88;5051089;28;20185;-64
2022/11/16 00:51:30;;;;;;;10.77;8.60;;;;;;;9.77;100.00;98720.09;5023769;28;20312;-62
2022/11/16 00:53:55;;;;;;;12.73;9.70;;;;;;;9.78;100.00;98719.97;5033599;28;20173;-62
2022/11/16 00:56:20;;;;;;;15.70;9.13;;;;;;;9.73;100.00;98727.19;5050961;28;20223;-63
2022/11/16 00:58:46;;;;;;;13.77;9.23;;;;;;;9.59;100.00;98728.22;5064188;28;20320;-62
2022/11/16 01:01:12;;;;;;;9.50;8.60;;;;;;;9.60;100.00;98724.72;5050406;28;20637;-63
2022/11/16 01:03:37;;;;;;;10.13;9.13;;;;;;;9.59;100.00;98717.09;5034541;28;20189;-63
2022/11/16 01:06:05;;;;;;;12.13;10.00;;;;;;;9.70;100.00;98717.16;5033569;28;20243;-65
2022/11/16 01:08:30;;;;;;;10.83;9.60;;;;;;;9.52;100.00;98712.41;5032871;28;20272;-63
2022/11/16 01:12:07;;;;;;;12.63;9.67;;;;;;;9.58;100.00;98715.50;5010312;28;20661;-63
2022/11/16 01:13:41;;;;;;;11.10;9.90;;;;;;;9.71;100.00;98721.34;5039619;28;20185;-63
2022/11/16 01:16:06;;;;;;;10.93;9.83;;;;;;;9.74;100.00;98713.44;5051065;28;20698;-63
2022/11/16 01:18:32;;;;;;;12.23;10.37;;;;;;;9.82;100.00;98715.44;5051132;28;20617;-63
2022/11/16 01:20:57;;;;;;;13.70;10.30;;;;;;;9.75;100.00;98709.94;5040488;28;20228;-64
2022/11/16 01:23:22;;;;;;;11.30;10.10;;;;;;;9.77;100.00;98707.25;5050726;28;20668;-64
2022/11/16 01:25:55;;;;;;;12.17;10.27;;;;;;;9.72;100.00;98705.00;5051227;28;20200;-63
2022/11/16 01:28:21;;;;;;;11.83;10.47;;;;;;;9.66;100.00;98696.03;5032517;28;20624;-63
2022/11/16 01:30:47;;;;;;;17.50;10.77;;;;;;;9.67;100.00;98701.97;5040469;28;20274;-63
2022/11/16 01:33:13;;;;;;;14.80;10.00;;;;;;;9.75;100.00;98706.53;5033366;28;20184;-64
2022/11/16 01:35:42;;;;;;;14.83;10.23;;;;;;;9.70;100.00;98701.75;5051035;28;20217;-64
2022/11/16 01:38:07;;;;;;;12.23;11.03;;;;;;;9.67;100.00;98704.53;5032512;28;20335;-64
2022/11/16 01:40:33;;;;;;;13.70;12.07;;;;;;;9.62;100.00;98704.88;5022785;28;20209;-63
2022/11/16 01:42:58;;;;;;;15.47;12.23;;;;;;;9.65;100.00;98699.53;5050067;28;20551;-63
2022/11/16 01:45:41;;;;;;;14.13;11.13;;;;;;;9.60;100.00;98701.63;5051180;28;20186;-64
2022/11/16 01:48:07;;;;;;;13.73;11.47;;;;;;;9.63;100.00;98701.38;5032552;28;20188;-63
2022/11/16 01:50:34;;;;;;;15.57;11.90;;;;;;;9.60;100.00;98703.34;5040166;28;20232;-64
2022/11/16 01:53:03;;;;;;;14.37;11.13;;;;;;;9.69;100.00;98688.09;5033086;28;20216;-63
2022/11/16 01:55:32;;;;;;;13.83;11.43;;;;;;;9.65;100.00;98694.38;5032564;28;20207;-64
2022/11/16 01:57:59;;;;;;;15.07;13.07;;;;;;;9.65;100.00;98689.25;5044340;28;20180;-64
2022/11/16 02:00:25;;;;;;;13.83;12.33;;;;;;;9.59;100.00;98684.56;5026100;28;20236;-64
2022/11/16 02:02:50;;;;;;;13.47;11.73;;;;;;;9.65;100.00;98686.69;5043227;28;20660;-64
2022/11/16 02:05:20;;;;;;;16.23;13.37;;;;;;;9.69;100.00;98680.38;5054772;28;20252;-63
2022/11/16 02:10:59;;;;;;;17.77;14.77;;;;;;;9.53;100.00;98667.03;5036414;28;20236;-63
2022/11/16 02:13:31;;;;;;;16.80;14.47;;;;;;;9.45;100.00;98664.22;5037347;28;20656;-64
2022/11/16 02:16:33;;;;;;;16.43;14.73;;;;;;;9.47;100.00;98663.16;5036127;28;20219;-65
2022/11/16 02:19:29;;;;;;;16.67;14.07;;;;;;;9.62;100.00;98668.91;5046206;28;20330;-63
2022/11/16 02:22:11;;;;;;;22.93;15.47;;;;;;;9.70;100.00;98670.94;5032976;28;20656;-63
2022/11/16 02:24:56;;;;;;;17.20;14.23;;;;;;;9.78;100.00;98671.19;5036254;28;20291;-63
2022/11/16 02:27:42;;;;;;;17.60;15.63;;;;;;;9.66;100.00;98680.63;5036107;28;20196;-64
2022/11/16 02:30:08;;;;;;;21.73;16.83;;;;;;;9.66;100.00;98669.53;5035045;28;20192;-64
2022/11/16 02:32:35;;;;;;;17.93;15.97;;;;;;;9.58;100.00;98671.84;5036199;28;20193;-62
2022/11/16 02:35:04;;;;;;;20.07;16.80;;;;;;;9.52;100.00;98668.78;5035102;28;20173;-63
2022/11/16 02:37:34;;;;;;;18.20;16.43;;;;;;;9.42;100.00;98665.25;5053394;28;20727;-64
2022/11/16 02:40:05;;;;;;;19.63;17.53;;;;;;;9.34;100.00;98667.53;5054377;28;20684;-63
2022/11/16 02:42:44;;;;;;;19.67;17.67;;;;;;;9.29;100.00;98661.94;5009464;28;20308;-63
2022/11/16 02:45:15;;;;;;;20.50;18.40;;;;;;;9.31;100.00;98665.22;5036233;28;20185;-65
2022/11/16 02:47:43;;;;;;;19.23;17.30;;;;;;;9.34;100.00;98664.97;5041125;28;20182;-63
2022/11/16 02:50:15;;;;;;;20.53;17.70;;;;;;;9.36;100.00;98665.69;5024125;28;20201;-63
2022/11/16 02:52:40;;;;;;;19.93;17.97;;;;;;;9.25;100.00;98658.75;5026758;28;20175;-64
2022/11/16 02:55:06;;;;;;;19.83;17.63;;;;;;;9.30;100.00;98668.72;5053794;28;20260;-62
2022/11/16 02:57:59;;;;;;;20.30;18.13;;;;;;;9.40;100.00;98661.16;5043621;28;20180;-63
2022/11/16 03:00:33;;;;;;;20.00;18.10;;;;;;;9.42;100.00;98667.00;5047714;28;20232;-62
2022/11/16 03:03:28;;;;;;;19.57;17.53;;;;;;;9.41;100.00;98661.03;5042553;28;20174;-64
2022/11/16 03:06:00;;;;;;;18.93;17.13;;;;;;;9.32;100.00;98661.72;5007709;28;20189;-64
2022/11/16 03:08:32;;;;;;;19.67;17.30;;;;;;;9.36;100.00;98653.69;5034382;28;20189;-63
2022/11/16 03:13:48;;;;;;;17.80;16.10;;;;;;;9.36;100.00;98645.16;5042052;28;20188;-65
2022/11/16 03:16:32;;;;;;;16.90;15.03;;;;;;;9.50;100.00;98644.16;5053113;28;20205;-65
2022/11/16 03:19:01;;;;;;;16.40;14.80;;;;;;;9.57;100.00;98650.47;5035555;28;20196;-64
2022/11/16 03:21:38;;;;;;;15.93;14.33;;;;;;;9.57;100.00;98639.41;5025145;28;20551;-63
2022/11/16 03:24:05;;;;;;;16.00;13.90;;;;;;;9.76;100.00;98636.28;5035324;28;20177;-66
2022/11/16 03:26:46;;;;;;;14.83;13.33;;;;;;;9.85;100.00;98633.03;5035056;28;20186;-63
2022/11/16 03:29:32;;;;;;;14.23;12.97;;;;;;;9.76;100.00;98636.28;5035171;28;20950;-63
2022/11/16 03:32:15;;;;;;;15.63;13.70;;;;;;;9.87;100.00;98644.00;5042450;28;20228;-63
2022/11/16 03:34:48;;;;;;;12.33;11.03;;;;;;;9.85;100.00;98626.13;5035204;28;20655;-63
2022/11/16 03:37:14;;;;;;;13.70;12.40;;;;;;;9.68;100.00;98624.81;5034517;28;20197;-64
2022/11/16 03:39:41;;;;;;;16.13;12.70;;;;;;;9.85;100.00;98635.59;5035325;28;20225;-63
2022/11/16 03:42:12;;;;;;;15.57;13.97;;;;;;;9.73;100.00;98645.03;5024718;28;20275;-63
2022/11/16 03:44:39;;;;;;;16.10;14.40;;;;;;;9.89;100.00;98651.59;5035366;28;20559;-63
2022/11/16 03:47:05;;;;;;;15.33;13.83;;;;;;;9.84;100.00;98657.88;5033850;28;20220;-64
2022/11/16 03:49:30;;;;;;;16.17;12.93;;;;;;;9.81;100.00;98655.56;5034955;28;20279;-64
2022/11/16 03:51:56;;;;;;;14.23;12.83;;;;;;;9.86;100.00;98660.38;5041695;28;20221;-64
2022/11/16 03:54:22;;;;;;;13.93;12.53;;;;;;;9.87;100.00;98663.72;5034924;28;20185;-65
2022/11/16 03:56:47;;;;;;;13.70;12.20;;;;;;;9.88;100.00;98670.50;5054196;28;20213;-63
2022/11/16 03:59:13;;;;;;;13.50;12.00;;;;;;;9.82;100.00;98674.34;5063440;28;20173;-64
2022/11/16 04:01:38;;;;;;;13.17;11.93;;;;;;;9.96;100.00;98666.44;5042553;28;20326;-63
2022/11/16 04:04:03;;;;;;;13.20;11.90;;;;;;;9.79;100.00;98661.75;5051964;28;20248;-64
2022/11/16 04:25:50;;;;;;;10.50;9.50;;;;;;;9.97;100.00;98678.34;5051967;28;20323;-64
2022/11/16 04:28:20;;;;;;;11.03;10.07;;;;;;;9.97;100.00;98683.50;5033721;28;20215;-63
2022/11/16 04:39:02;;;;;;;10.13;9.13;;;;;;;10.05;100.00;98684.63;5051984;28;20227;-63
2022/11/16 04:44:14;;;;;;;11.60;10.40;;;;;;;10.08;100.00;98682.66;5051937;28;20220;-64
2022/11/16 04:49:23;;;;;;;11.57;10.47;;;;;;;10.02;100.00;98688.25;5040452;28;20299;-63
2022/11/16 04:51:48;;;;;;;10.90;9.90;;;;;;;9.81;100.00;98690.69;5040645;28;20316;-63
2022/11/16 04:54:13;;;;;;;11.60;10.50;;;;;;;9.73;100.00;98686.13;5051415;28;20189;-63
2022/11/16 04:56:39;;;;;;;11.97;10.63;;;;;;;9.73;100.00;98695.56;5051748;28;20211;-62
2022/11/16 04:59:04;;;;;;;12.10;10.90;;;;;;;9.61;100.00;98685.28;5063368;28;20177;-63
2022/11/16 05:04:13;;;;;;;13.63;11.93;;;;;;;9.58;100.00;98687.25;5051316;28;20188;-63
2022/11/16 05:06:38;;;;;;;12.33;11.07;;;;;;;9.67;100.00;98687.41;5050813;28;20185;-63
2022/11/16 05:09:04;;;;;;;12.43;11.13;;;;;;;9.75;100.00;98699.66;5033366;28;20181;-63
2022/11/16 05:11:29;;;;;;;11.47;10.37;;;;;;;9.70;100.00;98694.06;5027778;28;20224;-63
2022/11/16 05:13:54;;;;;;;14.13;11.77;;;;;;;9.72;100.00;98693.94;5051672;28;20231;-63
2022/11/16 05:16:20;;;;;;;12.87;11.57;;;;;;;9.64;100.00;98694.50;5050578;28;20696;-63
2022/11/16 05:20:59;;;;;;;13.10;11.63;;;;;;;9.58;100.00;98695.75;5050835;28;20655;-64
2022/11/16 05:21:30;;;;;;;13.43;12.13;;;;;;;9.59;100.00;98694.84;5039991;28;20229;-63
2022/11/16 05:26:39;;;;;;;13.83;12.23;;;;;;;9.66;100.00;98708.03;5050641;28;20251;-64
2022/11/16 05:29:05;;;;;;;12.27;10.97;;;;;;;9.63;100.00;98701.38;5051171;28;20643;-63
2022/11/16 05:31:30;;;;;;;12.40;11.27;;;;;;;9.61;100.00;98702.41;5023443;28;20221;-64
2022/11/16 05:33:55;;;;;;;13.47;11.83;;;;;;;9.51;100.00;98703.09;5050374;28;20497;-63
2022/11/16 05:36:21;;;;;;;12.73;11.60;;;;;;;9.51;100.00;98704.84;5050082;28;20366;-64
2022/11/16 05:38:46;;;;;;;12.60;11.40;;;;;;;9.72;100.00;98707.59;5050728;28;20217;-62
2022/11/16 05:41:11;;;;;;;12.23;11.00;;;;;;;9.50;100.00;98706.59;5022105;28;20252;-64
2022/11/16 05:43:37;;;;;;;12.97;10.87;;;;;;;9.56;100.00;98699.38;5049821;28;20657;-62
2022/11/16 05:46:02;;;;;;;11.87;10.63;;;;;;;9.64;100.00;98695.31;5050180;28;20630;-66
2022/11/16 05:48:27;;;;;;;14.13;10.60;;;;;;;9.67;100.00;98701.97;5050739;28;20177;-63
2022/11/16 05:50:59;;;;;;;11.87;10.77;;;;;;;9.56;100.00;98692.47;5040028;28;20316;-62
2022/11/16 05:53:25;;;;;;;11.23;10.13;;;;;;;9.59;100.00;98702.53;5033274;28;20557;-62
2022/11/16 05:55:50;;;;;;;11.77;10.57;;;;;;;9.51;100.00;98707.41;5051011;28;20632;-62
2022/11/16 05:58:16;;;;;;;10.57;9.50;;;;;;;9.63;100.00;98718.53;5055273;28;20206;-62
2022/11/16 06:00:41;;;;;;;13.50;11.00;;;;;;;9.58;100.00;98716.28;5043808;28;20311;-63
2022/11/16 06:03:06;;;;;;;11.73;10.70;;;;;;;9.51;100.00;98710.81;5049958;28;20179;-62
2022/11/16 06:05:34;;;;;;;12.83;11.50;;;;;;;9.62;100.00;98717.72;5050916;28;20204;-62
2022/11/16 06:07:59;;;;;;;12.60;11.30;;;;;;;9.64;100.00;98708.16;5032512;28;20188;-62
2022/11/16 06:10:24;;;;;;;14.37;12.83;;;;;;;9.49;100.00;98707.50;5040176;28;20224;-62
2022/11/16 06:12:50;;;;;;;15.77;13.67;;;;;;;9.41;100.00;98701.31;5053888;28;20181;-63
2022/11/16 06:15:15;;;;;;;15.70;14.10;;;;;;;9.44;100.00;98708.75;5050933;28;20683;-62
2022/11/16 06:17:40;;;;;;;16.00;14.40;;;;;;;9.39;100.00;98710.84;5050305;28;20307;-63
2022/11/16 06:20:06;;;;;;;16.50;14.90;;;;;;;9.28;100.00;98712.44;5040375;28;20540;-62
2022/11/16 06:22:32;;;;;;;15.97;14.47;;;;;;;9.29;100.00;98713.25;5049597;28;20188;-62
2022/11/16 06:24:57;;;;;;;15.37;13.87;;;;;;;9.29;100.00;98713.25;5050913;28;20578;-64
2022/11/16 06:27:22;;;;;;;15.60;13.97;;;;;;;9.22;100.00;98714.66;5050344;28;20177;-63
2022/11/16 06:29:48;;;;;;;17.03;15.10;;;;;;;9.25;100.00;98716.97;5050982;28;20364;-63
2022/11/16 06:32:13;;;;;;;15.17;13.67;;;;;;;9.29;100.00;98715.81;5039593;28;20217;-63
2022/11/16 06:34:38;;;;;;;13.53;12.13;;;;;;;9.21;100.00;98716.38;5050404;28;20209;-63
2022/11/16 06:37:04;;;;;;;12.70;11.40;;;;;;;9.16;100.00;98726.16;5032245;28;20209;-62
2022/11/16 06:39:29;;;;;;;14.47;11.73;;;;;;;9.24;100.00;98723.03;5050641;28;20221;-62
2022/11/16 06:41:55;;;;;;;12.60;11.30;;;;;;;9.24;100.00;98726.44;5037871;28;20249;-62
2022/11/16 06:44:20;;;;;;;12.33;11.03;;;;;;;9.25;100.00;98725.47;5050130;28;20537;-62
2022/11/16 06:46:45;;;;;;;10.73;9.63;;;;;;;9.10;100.00;98721.44;5032341;28;20253;-62
2022/11/16 06:49:10;;;;;;;10.43;9.33;;;;;;;9.06;100.00;98723.41;5053442;28;20173;-63
2022/11/16 06:51:36;;;;;;;9.80;7.97;;;;;;;9.02;100.00;98727.94;5043519;28;20221;-62
2022/11/16 06:54:01;;;;;;;10.87;8.40;;;;;;;9.03;100.00;98726.19;5053564;28;20218;-62
2022/11/16 06:56:26;;;;;;;10.27;8.57;;;;;;;8.98;100.00;98730.81;5053597;28;20223;-62
2022/11/16 06:58:55;;;;;;;7.10;6.40;;;;;;;8.93;100.00;98730.31;5066830;28;20178;-62
2022/11/16 07:01:20;;;;;;;8.63;6.40;;;;;;;8.90;100.00;98728.78;5036458;28;20229;-62
2022/11/16 07:03:45;;;;;;;10.90;6.10;;;;;;;8.98;100.00;98733.38;5053205;28;20608;-62
2022/11/16 07:06:13;;;;;;;8.13;5.37;;;;;;;8.92;100.00;98734.63;5036089;28;20184;-61
2022/11/16 07:08:39;;;;;;;7.00;5.57;;;;;;;8.95;100.00;98741.28;5053665;28;20185;-62
2022/11/16 07:11:06;;;;;;;8.20;6.00;;;;;;;8.97;100.00;98740.25;5047288;28;20260;-62
2022/11/16 07:13:33;;;;;;;7.90;5.73;;;;;;;9.03;100.00;98752.66;5022755;28;20178;-62
2022/11/16 07:16:06;;;;;;;7.57;5.50;;;;;;;8.95;100.00;98760.06;5035494;28;20198;-66
2022/11/16 07:18:37;;;;;;;8.03;5.93;;;;;;;9.03;100.00;98757.78;5035507;28;20235;-62
2022/11/16 07:21:10;;;;;;;12.13;5.73;;;;;;;9.07;100.00;98758.41;5025266;28;20232;-62
2022/11/16 07:23:37;;;;;;;6.03;5.03;;;;;;;9.15;100.00;98765.56;5036014;28;20263;-63
2022/11/16 07:26:04;;;;;;;9.10;4.80;;;;;;;9.17;100.00;98771.41;5053078;28;20194;-64
2022/11/16 07:28:29;;;;;;;5.43;4.70;;;;;;;9.07;100.00;98773.78;5035128;28;20180;-63
2022/11/16 07:31:12;;;;;;;7.73;4.87;;;;;;;9.10;100.00;98776.13;5042350;28;20308;-63
2022/11/16 07:33:37;;;;;;;7.17;4.70;;;;;;;9.24;100.00;98777.75;5035786;28;20852;-63
2022/11/16 07:36:05;;;;;;;5.93;3.87;;;;;;;9.28;100.00;98776.59;5034505;28;20205;-64
2022/11/16 07:38:32;;;;;;;4.80;3.50;;;;;;;9.28;100.00;98778.31;5052297;28;20225;-63
2022/11/16 07:41:01;;;;;;;8.73;3.50;;;;;;;9.11;100.00;98784.66;5024739;28;20673;-62
2022/11/16 07:43:30;;;;;;;5.27;3.70;;;;;;;9.15;100.00;98789.47;5024110;28;20178;-63
2022/11/16 07:45:57;;;;;;;4.77;3.27;;;;;;;9.26;100.00;98795.59;5052621;28;20686;-63
2022/11/16 07:48:23;;;;;;;6.10;3.60;;;;;;;9.28;100.00;98801.41;5052226;28;20228;-62
2022/11/16 07:50:49;;;;;;;6.50;3.00;;;;;;;9.20;100.00;98799.41;5042477;28;20221;-63
2022/11/16 07:53:14;;;;;;;6.37;2.97;;;;;;;9.31;100.00;98790.97;5052445;28;20243;-62
2022/11/16 07:55:39;;;;;;;7.87;3.10;;;;;;;9.37;100.00;98799.03;5052979;28;20200;-63
2022/11/16 07:58:05;;;;;;;4.13;2.43;;;;;;;9.30;100.00;98805.53;5052426;28;20181;-63
2022/11/16 08:00:30;;;;;;;6.10;2.43;;;;;;;9.36;100.00;98817.94;5036273;28;20248;-63
2022/11/16 08:02:56;;;;;;;4.90;2.67;;;;;;;9.42;100.00;98823.56;5059125;28;20264;-63
2022/11/16 08:05:21;;;;;;;3.67;2.10;;;;;;;9.32;100.00;98818.25;5052666;28;20567;-63
2022/11/16 08:07:46;;;;;;;5.17;2.23;;;;;;;9.28;100.00;98817.66;5052684;28;20192;-63
2022/11/16 08:10:12;;;;;;;6.57;2.40;;;;;;;9.42;100.00;98823.56;5041715;28;20592;-63
2022/11/16 08:12:37;;;;;;;3.90;1.80;;;;;;;9.41;100.00;98827.88;5039937;28;20268;-63
2022/11/16 08:15:03;;;;;;;4.93;2.07;;;;;;;9.20;100.00;98817.34;5052693;28;20617;-64
2022/11/16 08:17:28;;;;;;;3.10;1.80;;;;;;;9.33;100.00;98815.59;5024044;28;20225;-63
2022/11/16 08:19:53;;;;;;;5.80;2.33;;;;;;;9.28;100.00;98821.94;5034598;28;20173;-63
2022/11/16 08:22:19;;;;;;;6.47;1.87;;;;;;;9.28;100.00;98821.94;5041029;28;20696;-63
2022/11/16 08:24:44;;;;;;;8.60;2.23;;;;;;;9.34;100.00;98822.34;5052437;28;20385;-63
2022/11/16 08:27:09;;;;;;;5.67;1.70;;;;;;;9.36;100.00;98827.38;5051984;28;20193;-63
2022/11/16 08:29:35;;;;;;;3.23;1.50;;;;;;;9.48;100.00;98829.09;5034586;28;20181;-62
2022/11/16 08:32:00;;;;;;;6.17;2.13;;;;;;;9.58;100.00;98821.56;5003985;28;20225;-63
2022/11/16 08:34:26;;;;;;;3.43;1.60;;;;;;;9.74;100.00;98836.69;5051316;28;20578;-63
2022/11/16 08:36:51;;;;;;;7.97;2.90;;;;;;;9.77;100.00;98828.75;5051824;28;20664;-61
2022/11/16 08:39:18;;;;;;;3.80;1.70;;;;;;;9.83;100.00;98819.81;5051842;28;20618;-61
2022/11/16 08:41:43;;;;;;;7.17;2.07;;;;;;;9.86;100.00;98829.88;5024058;28;20217;-62
2022/11/16 08:44:09;;;;;;;7.23;2.03;;;;;;;9.69;100.00;98824.19;5051769;28;20573;-62
2022/11/16 08:46:34;;;;;;;5.33;1.83;;;;;;;9.47;100.00;98832.56;5051757;28;20182;-62
2022/11/16 08:48:59;;;;;;;5.17;2.03;;;;;;;9.67;100.00;98830.34;5051941;28;20189;-61
2022/11/16 08:51:25;;;;;;;5.50;1.93;;;;;;;9.81;100.00;98835.34;5041146;28;20249;-62
2022/11/16 08:53:56;;;;;;;7.33;1.83;;;;;;;9.88;100.00;98845.16;5051109;28;20208;-62
2022/11/16 08:56:21;;;;;;;11.20;2.10;;;;;;;10.34;100.00;98852.94;5029971;28;20633;-61
2022/11/16 08:58:47;;;;;;;4.83;1.80;;;;;;;11.27;100.00;98853.69;5051709;28;20243;-62
2022/11/16 09:01:15;;;;;;;4.50;1.70;;;;;;;12.00;100.00;98853.22;5050982;28;20228;-62
2022/11/16 09:03:41;;;;;;;6.67;2.23;;;;;;;12.69;100.00;98848.50;5034033;28;20182;-62
2022/11/16 09:06:08;;;;;;;7.47;2.10;;;;;;;13.58;100.00;98847.06;5033581;28;20258;-62
2022/11/16 09:08:36;;;;;;;6.70;2.53;;;;;;;15.14;100.00;98841.69;5032091;28;20196;-62
2022/11/16 09:11:06;;;;;;;7.83;2.37;;;;;;;15.45;100.00;98837.94;5026201;28;20679;-62
2022/11/16 09:13:31;;;;;;;5.27;2.30;;;;;;;15.45;100.00;98841.34;5051013;28;20185;-62
2022/11/16 09:15:58;;;;;;;5.47;1.83;;;;;;;15.26;100.00;98842.28;5033490;28;20647;-62
2022/11/16 09:18:24;;;;;;;7.03;2.17;;;;;;;15.91;100.00;98841.31;5051089;28;20186;-63
2022/11/16 09:20:50;;;;;;;7.63;2.00;;;;;;;17.01;100.00;98837.53;5023111;28;20233;-63
2022/11/16 09:23:15;;;;;;;6.47;1.67;;;;;;;17.34;99.48;98841.03;5033578;28;20173;-63
2022/11/16 09:25:41;;;;;;;5.50;1.90;;;;;;;16.91;99.52;98846.22;5051735;28;20196;-64
2022/11/16 09:28:07;;;;;;;8.80;2.00;;;;;;;16.55;100.00;98850.72;5038637;28;20184;-63
2022/11/16 09:30:33;;;;;;;7.53;2.27;;;;;;;15.53;100.00;98855.34;5040787;28;20828;-64
2022/11/16 09:32:58;;;;;;;5.13;1.63;;;;;;;14.91;100.00;98854.16;5033108;28;20229;-63
2022/11/16 09:35:23;;;;;;;8.87;2.20;;;;;;;14.55;100.00;98850.56;5033066;28;20181;-65
2022/11/16 09:37:49;;;;;;;7.33;2.27;;;;;;;14.24;100.00;98846.41;5050431;28;20568;-62
2022/11/16 09:40:14;;;;;;;7.20;2.13;;;;;;;13.78;100.00;98853.06;5041011;28;20265;-64
2022/11/16 09:43:00;;;;;;;8.60;2.03;;;;;;;13.86;100.00;98856.59;5050117;28;20500;-62
2022/11/16 09:45:51;;;;;;;6.73;2.10;;;;;;;13.71;100.00;98853.59;5033307;28;20184;-62
2022/11/16 09:48:17;;;;;;;8.60;2.20;;;;;;;13.97;100.00;98854.84;5032470;28;20208;-63
2022/11/16 09:50:58;;;;;;;8.40;2.33;;;;;;;13.83;100.00;98849.13;5022670;28;20619;-62
2022/11/16 09:53:32;;;;;;;7.03;2.00;;;;;;;14.00;100.00;98854.56;5043404;28;20201;-63
2022/11/16 09:56:18;;;;;;;8.63;2.40;;;;;;;14.07;100.00;98849.69;5033076;28;20204;-64
2022/11/16 09:58:54;;;;;;;5.83;1.90;;;;;;;14.14;100.00;98854.16;5045691;28;20264;-63
2022/11/16 10:01:22;;;;;;;5.47;1.70;;;;;;;14.31;100.00;98854.41;5051317;28;20258;-63
2022/11/16 10:03:52;;;;;;;3.97;1.97;;;;;;;13.90;100.00;98857.16;5050606;28;20177;-63
2022/11/16 10:06:31;;;;;;;7.03;2.27;;;;;;;13.81;100.00;98863.16;5032256;28;20241;-65
2022/11/16 10:08:57;;;;;;;10.50;2.20;;;;;;;13.95;100.00;98861.94;5051083;28;20260;-62
2022/11/16 10:11:42;;;;;;;7.20;1.80;;;;;;;14.01;100.00;98857.00;5018549;28;20687;-61
2022/11/16 10:14:10;;;;;;;5.13;1.67;;;;;;;13.94;100.00;98857.69;5033136;28;20185;-61
2022/11/16 10:16:59;;;;;;;9.50;1.90;;;;;;;13.08;100.00;98854.66;5050099;28;20201;-62
2022/11/16 10:20:00;;;;;;;5.67;1.90;;;;;;;12.98;100.00;98861.53;5050805;28;20173;-61
2022/11/16 10:22:40;;;;;;;9.43;2.13;;;;;;;12.90;100.00;98862.19;5023873;28;20228;-62
2022/11/16 10:25:19;;;;;;;10.50;1.67;;;;;;;12.32;100.00;98867.84;5026122;28;20169;-61
2022/11/16 10:28:00;;;;;;;5.97;1.90;;;;;;;12.49;100.00;98857.88;5053901;28;20530;-62
2022/11/16 10:30:26;;;;;;;5.77;2.40;;;;;;;12.30;100.00;98858.59;5043573;28;20221;-61
2022/11/16 10:33:05;;;;;;;7.60;2.73;;;;;;;12.17;100.00;98858.75;5053383;28;20228;-62
2022/11/16 10:35:38;;;;;;;7.47;2.37;;;;;;;12.30;100.00;98848.28;5054146;28;20196;-61
2022/11/16 10:38:16;;;;;;;5.90;1.87;;;;;;;12.42;100.00;98847.28;5053890;28;20252;-61
2022/11/16 10:40:45;;;;;;;8.07;2.57;;;;;;;12.73;100.00;98832.63;5025932;28;20228;-61
2022/11/16 10:43:19;;;;;;;9.40;2.50;;;;;;;13.06;100.00;98822.16;5036649;28;20551;-61
2022/11/16 10:46:03;;;;;;;5.17;2.20;;;;;;;13.03;100.00;98819.84;5036127;28;20544;-61
2022/11/16 10:48:48;;;;;;;6.37;2.67;;;;;;;13.24;100.00;98815.41;5053518;28;20184;-62
2022/11/16 10:51:13;;;;;;;4.93;2.33;;;;;;;12.71;100.00;98807.91;5025881;28;20281;-61
2022/11/16 10:53:42;;;;;;;4.70;1.83;;;;;;;13.03;100.00;98801.78;5053639;28;20291;-60
2022/11/16 10:56:18;;;;;;;7.73;2.23;;;;;;;12.42;100.00;98803.44;5035766;28;20193;-62
2022/11/16 10:58:51;;;;;;;10.07;2.30;;;;;;;12.23;100.00;98804.13;5035989;28;20182;-62
2022/11/16 11:01:27;;;;;;;10.70;2.30;;;;;;;12.33;100.00;98802.44;5053868;28;20278;-61
2022/11/16 11:03:52;;;;;;;5.27;1.67;;;;;;;12.53;100.00;98805.13;5023788;28;20203;-61
2022/11/16 11:06:17;;;;;;;6.77;2.20;;;;;;;12.68;100.00;98797.88;5053122;28;20185;-67
2022/11/16 11:08:43;;;;;;;8.43;2.33;;;;;;;12.69;100.00;98805.47;5053823;28;20555;-62
2022/11/16 11:14:10;;;;;;;11.40;2.37;;;;;;;12.51;100.00;98800.06;5053699;28;20636;-62
2022/11/16 11:16:36;;;;;;;9.73;2.57;;;;;;;12.37;100.00;98803.00;5053115;28;20835;-61
2022/11/16 11:19:33;;;;;;;12.20;2.87;;;;;;;12.27;100.00;98803.75;5035813;28;20200;-61
2022/11/16 11:21:59;;;;;;;6.13;2.40;;;;;;;12.33;100.00;98805.00;5032106;28;20442;-61
2022/11/16 11:24:27;;;;;;;9.97;2.20;;;;;;;12.25;100.00;98799.66;5035082;28;20169;-60
2022/11/16 11:26:56;;;;;;;14.97;2.77;;;;;;;12.48;100.00;98804.66;5052579;28;20178;-61
2022/11/16 11:29:30;;;;;;;9.10;2.80;;;;;;;12.52;100.00;98803.47;5052417;28;20537;-60
2022/11/16 11:32:16;;;;;;;7.13;2.30;;;;;;;12.65;100.00;98801.53;5042685;28;20564;-61
2022/11/16 11:34:46;;;;;;;6.00;1.87;;;;;;;12.96;100.00;98798.94;5033046;28;20193;-61
2022/11/16 11:37:14;;;;;;;9.67;2.87;;;;;;;12.93;100.00;98795.78;5052689;28;20202;-61
2022/11/16 11:39:39;;;;;;;8.67;2.20;;;;;;;12.94;100.00;98793.06;5035663;28;20279;-61
2022/11/16 11:42:11;;;;;;;4.83;2.10;;;;;;;12.68;100.00;98795.28;5024771;28;20279;-62
2022/11/16 11:44:48;;;;;;;6.70;2.40;;;;;;;12.39;100.00;98789.03;5053406;28;20174;-61
2022/11/16 11:47:31;;;;;;;8.30;2.23;;;;;;;12.32;100.00;98789.69;5050213;28;20224;-61
2022/11/16 11:50:15;;;;;;;13.30;2.47;;;;;;;12.43;100.00;98790.41;5035341;28;20173;-60
2022/11/16 11:53:15;;;;;;;7.93;2.33;;;;;;;12.72;100.00;98776.81;5008722;28;20220;-61
2022/11/16 11:55:40;;;;;;;8.33;1.90;;;;;;;13.13;100.00;98771.63;5023357;28;20185;-62
2022/11/16 11:58:14;;;;;;;6.37;2.07;;;;;;;13.18;100.00;98769.47;5052288;28;20188;-63
2022/11/16 12:01:00;;;;;;;7.90;2.27;;;;;;;13.52;100.00;98771.72;5020489;28;20638;-61
2022/11/16 12:03:48;;;;;;;7.67;2.43;;;;;;;13.60;100.00;98768.47;5054141;28;20173;-61
2022/11/16 12:06:25;;;;;;;5.70;1.90;;;;;;;13.69;100.00;98772.84;5034814;28;20553;-66
2022/11/16 12:09:32;;;;;;;9.40;2.40;;;;;;;13.03;100.00;98768.22;5034882;28;20181;-62
2022/11/16 12:12:17;;;;;;;8.20;2.53;;;;;;;12.91;100.00;98776.09;5045251;28;20700;-64
2022/11/16 12:15:09;;;;;;;6.97;2.00;;;;;;;12.90;100.00;98765.91;5052926;28;20675;-62
2022/11/16 12:17:54;;;;;;;5.53;2.13;;;;;;;13.07;100.00;98767.00;5024167;28;20228;-62
2022/11/16 12:20:31;;;;;;;8.27;2.60;;;;;;;13.16;100.00;98768.81;5013890;28;20178;-62